Lake Annette, Missouri
Current Conditions -  °F | °C
As of 3:53 PM on Thursday 23 Oct 2014 (Local Time) from KOJC Reporting Station
Overcast Overcast  
Wind Chill: 64°   Ceiling: 1300
Heat Index: 64°   Visibility: 8mi
Dew Point: 60°   Wind: 8mph
Humidity: 87%   Direction: 230°SW
Pressure: 30.06"   Gusts: NA
Location:  38.6151°N, 94.4966°W
Report Text: KOJC 232053Z 23007KT 8SM OVC013 18/16 A3006 RMK AO2 SLP173 T01780156 56016
Loading
Personal Weather Stations






























Interactive Weather Map
Tropical Storm Tracking
New forecast layout! Learn more

10-Day Weather Forecast

Advertisements
Track Severe Weather on mobile